createdAt,value
2019-04-04T00:01:33.112Z,97134.17
2019-04-04T00:04:06.019Z,97132.58
2019-04-04T00:06:38.997Z,97129.64
2019-04-04T00:09:13.049Z,97133.63
2019-04-04T00:11:44.918Z,97123.29
2019-04-04T00:14:19.609Z,97116.38
2019-04-04T00:16:53.134Z,97104.69
2019-04-04T00:19:27.906Z,97117.18
2019-04-04T00:22:04.937Z,97116.12
2019-04-04T00:24:40.461Z,97110.30
2019-04-04T00:27:13.670Z,97107.64
2019-04-04T00:29:47.697Z,97104.72
2019-04-04T00:32:20.784Z,97110.55
2019-04-04T00:34:52.307Z,97098.84
2019-04-04T00:37:25.061Z,97098.84
2019-04-04T00:39:57.130Z,97101.50
2019-04-04T00:42:29.143Z,97101.50
2019-04-04T00:45:03.146Z,97094.34
2019-04-04T00:47:36.001Z,97088.24
2019-04-04T00:50:09.282Z,97090.09
2019-04-04T00:52:42.065Z,97090.89
2019-04-04T00:55:15.908Z,97089.56
2019-04-04T00:57:50.391Z,97088.76
2019-04-04T01:00:24.051Z,97088.76
2019-04-04T01:02:58.577Z,97087.67
2019-04-04T01:05:33.875Z,97085.02
2019-04-04T01:08:08.650Z,97079.44
2019-04-04T01:10:43.209Z,97075.46
2019-04-04T01:13:16.152Z,97072.80
2019-04-04T01:15:50.114Z,97073.60
2019-04-04T01:18:21.654Z,97077.82
2019-04-04T01:20:55.597Z,97066.40
2019-04-04T01:23:27.702Z,97075.14
2019-04-04T01:26:01.360Z,97077.52
2019-04-04T01:28:37.205Z,97067.72
2019-04-04T01:31:09.467Z,97066.37
2019-04-04T01:33:42.608Z,97070.58
2019-04-04T01:36:15.366Z,97074.04
2019-04-04T01:38:48.460Z,97060.79
2019-04-04T01:41:21.285Z,97056.31
2019-04-04T01:44:04.594Z,97065.87
2019-04-04T01:46:28.544Z,97056.83
2019-04-04T01:49:00.408Z,97058.95
2019-04-04T01:51:35.309Z,97048.85
2019-04-04T01:54:09.276Z,97057.04
2019-04-04T01:56:42.505Z,97049.03
2019-04-04T01:59:16.546Z,97058.83
2019-04-04T02:01:48.353Z,97036.81
2019-04-04T02:04:24.570Z,97043.66
2019-04-04T02:07:00.135Z,97050.03
2019-04-04T02:09:34.568Z,97043.94
2019-04-04T02:12:09.667Z,97044.28
2019-04-04T02:14:43.675Z,97029.52
2019-04-04T02:17:15.498Z,97025.26
2019-04-04T02:19:48.709Z,97029.00
2019-04-04T02:22:21.486Z,97025.02
2019-04-04T02:24:54.537Z,97027.90
2019-04-04T02:27:26.729Z,97025.47
2019-04-04T02:30:00.627Z,97016.16
2019-04-04T02:32:33.723Z,97024.09
2019-04-04T02:35:10.933Z,97033.37
2019-04-04T02:37:42.626Z,97028.86
2019-04-04T02:40:15.557Z,97015.61
2019-04-04T02:42:48.746Z,97020.63
2019-04-04T02:45:21.651Z,97022.44
2019-04-04T02:47:54.596Z,97014.78
2019-04-04T02:50:34.346Z,97018.23
2019-04-04T02:53:03.691Z,97016.31
2019-04-04T02:55:36.083Z,97023.75
2019-04-04T02:58:08.698Z,97018.44
2019-04-04T03:00:40.830Z,97015.77
2019-04-04T03:03:13.748Z,97016.28
2019-04-04T03:05:50.767Z,97020.88
2019-04-04T03:08:20.617Z,97020.63
2019-04-04T03:10:54.931Z,97016.36
2019-04-04T03:13:31.234Z,97010.81
2019-04-04T03:16:02.773Z,97023.00
2019-04-04T03:18:37.059Z,97021.95
2019-04-04T03:21:07.843Z,97010.27
2019-04-04T03:23:39.821Z,97023.27
2019-04-04T03:26:12.904Z,97011.58
2019-04-04T03:28:45.792Z,97014.77
2019-04-04T03:31:18.833Z,97015.33
2019-04-04T03:33:51.825Z,97011.59
2019-04-04T03:36:26.821Z,97011.33
2019-04-04T03:38:59.128Z,97012.14
2019-04-04T03:41:35.513Z,97013.19
2019-04-04T03:44:06.944Z,97012.94
2019-04-04T03:46:39.984Z,97011.86
2019-04-04T03:49:13.080Z,96998.83
2019-04-04T03:51:46.020Z,96994.50
2019-04-04T03:54:25.109Z,97006.17
2019-04-04T03:56:57.037Z,96999.37
2019-04-04T03:59:32.263Z,97001.27
2019-04-04T04:02:06.134Z,96992.75
2019-04-04T04:04:38.932Z,96997.75
2019-04-04T04:07:15.039Z,97000.61
2019-04-04T04:09:49.720Z,96966.72
2019-04-04T04:12:25.603Z,96993.52
2019-04-04T04:14:56.917Z,97000.70
2019-04-04T04:17:31.780Z,97001.77
2019-04-04T04:20:06.440Z,96996.47
2019-04-04T04:22:38.999Z,96997.27
2019-04-04T04:25:13.391Z,96999.41
2019-04-04T04:27:48.494Z,97006.28
2019-04-04T04:30:18.253Z,97002.83
2019-04-04T04:32:55.758Z,96997.50
2019-04-04T04:35:27.320Z,96995.89
2019-04-04T04:38:00.096Z,96994.03
2019-04-04T04:40:33.904Z,97000.38
2019-04-04T04:43:06.139Z,96994.56
2019-04-04T04:45:39.145Z,96990.06
2019-04-04T04:48:12.056Z,96991.10
2019-04-04T04:50:45.039Z,96988.17
2019-04-04T04:53:18.839Z,96989.48
2019-04-04T04:55:51.350Z,96984.95
2019-04-04T04:58:25.888Z,96984.43
2019-04-04T05:00:57.281Z,96988.93
2019-04-04T05:03:31.219Z,96996.11
2019-04-04T05:06:03.466Z,96978.38
2019-04-04T05:08:36.331Z,96978.38
2019-04-04T05:11:10.272Z,96986.12
2019-04-04T05:13:42.363Z,96989.06
2019-04-04T05:16:15.358Z,96991.94
2019-04-04T05:18:48.320Z,96994.23
2019-04-04T05:21:25.396Z,96984.38
2019-04-04T05:23:55.910Z,96984.77
2019-04-04T05:26:28.472Z,96990.04
2019-04-04T05:28:59.895Z,96990.72
2019-04-04T05:31:33.379Z,96983.99
2019-04-04T05:34:07.250Z,96993.19
2019-04-04T05:36:39.341Z,96994.45
2019-04-04T05:39:12.828Z,96988.73
2019-04-04T05:41:45.302Z,96902.38
2019-04-04T05:44:18.416Z,96991.05
2019-04-04T05:46:52.157Z,96989.58
2019-04-04T05:49:24.547Z,96986.89
2019-04-04T05:51:58.274Z,96976.91
2019-04-04T05:54:30.275Z,96978.22
2019-04-04T05:57:03.408Z,96971.99
2019-04-04T05:59:36.253Z,96972.26
2019-04-04T06:02:12.050Z,96966.50
2019-04-04T06:04:45.625Z,96969.52
2019-04-04T06:07:18.518Z,96964.81
2019-04-04T06:09:52.327Z,96968.77
2019-04-04T06:12:25.104Z,96959.59
2019-04-04T06:15:00.346Z,96965.88
2019-04-04T06:17:30.826Z,96958.63
2019-04-04T06:20:05.267Z,96954.37
2019-04-04T06:22:36.769Z,96950.14
2019-04-04T06:25:09.603Z,96945.83
2019-04-04T06:27:42.881Z,96938.50
2019-04-04T06:30:18.142Z,96937.20
2019-04-04T06:32:49.886Z,96942.00
2019-04-04T06:35:21.590Z,96940.37
2019-04-04T06:37:54.599Z,96937.58
2019-04-04T06:40:28.106Z,96939.05
2019-04-04T06:43:03.689Z,96932.72
2019-04-04T06:45:35.874Z,96936.23
2019-04-04T06:48:08.731Z,96933.69
2019-04-04T06:50:43.273Z,96936.68
2019-04-04T06:53:15.659Z,96923.86
2019-04-04T06:55:48.746Z,96929.14
2019-04-04T06:58:21.748Z,96926.39
2019-04-04T07:00:57.343Z,96918.55
2019-04-04T07:03:29.885Z,96907.21
2019-04-04T07:06:01.828Z,96907.21
2019-04-04T07:08:34.597Z,96914.92
2019-04-04T07:11:21.281Z,96912.20
2019-04-04T07:13:44.670Z,96914.15
2019-04-04T07:16:19.306Z,96906.70
2019-04-04T07:18:53.686Z,96904.19
2019-04-04T07:21:25.810Z,96906.80
2019-04-04T07:23:59.334Z,96912.95
2019-04-04T07:26:34.515Z,96903.59
2019-04-04T07:29:07.071Z,96900.44
2019-04-04T07:31:39.925Z,96903.41
2019-04-04T07:34:11.996Z,96897.22
2019-04-04T07:36:46.717Z,96894.43
2019-04-04T07:39:20.918Z,96896.03
2019-04-04T07:41:56.533Z,96898.98
2019-04-04T07:44:28.962Z,96895.71
2019-04-04T07:47:02.049Z,96887.61
2019-04-04T07:49:36.055Z,96883.00
2019-04-04T07:52:10.020Z,96884.29
2019-04-04T07:54:42.976Z,96888.99
2019-04-04T07:57:17.334Z,96881.53
2019-04-04T07:59:48.926Z,96882.13
2019-04-04T08:02:22.067Z,96874.92
2019-04-04T08:04:55.202Z,96877.98
2019-04-04T08:07:30.954Z,96871.02
2019-04-04T08:10:04.367Z,96859.80
2019-04-04T08:12:36.213Z,96858.66
2019-04-04T08:15:10.839Z,96860.80
2019-04-04T08:17:44.634Z,96859.01
2019-04-04T08:20:16.142Z,96859.69
2019-04-04T08:22:49.152Z,96858.53
2019-04-04T08:25:23.586Z,96857.62
2019-04-04T08:27:55.276Z,96863.73
2019-04-04T08:30:28.188Z,96860.87
2019-04-04T08:32:59.983Z,96865.86
2019-04-04T08:35:34.130Z,96853.31
2019-04-04T08:38:07.167Z,96851.38
2019-04-04T08:40:40.426Z,96846.70
2019-04-04T08:43:13.383Z,96853.30
2019-04-04T08:45:46.200Z,96862.13
2019-04-04T08:48:19.146Z,96879.69
2019-04-04T08:50:52.230Z,96876.20
2019-04-04T08:53:25.356Z,96879.50
2019-04-04T08:55:58.639Z,96889.62
2019-04-04T08:58:30.461Z,96875.65
2019-04-04T09:01:03.340Z,96880.48
2019-04-04T09:03:36.457Z,96877.88
2019-04-04T09:06:09.372Z,96876.97
2019-04-04T09:08:41.146Z,96881.44
2019-04-04T09:11:15.433Z,96889.42
2019-04-04T09:13:48.392Z,96888.66
2019-04-04T09:16:21.221Z,96888.66
2019-04-04T09:18:54.274Z,96888.88
2019-04-04T09:21:27.589Z,96882.13
2019-04-04T09:24:00.896Z,96876.52
2019-04-04T09:26:34.391Z,96874.03
2019-04-04T09:29:06.586Z,96876.28
2019-04-04T09:31:39.486Z,96873.48
2019-04-04T09:34:13.136Z,96883.84
2019-04-04T09:36:45.643Z,96876.99
2019-04-04T09:39:18.360Z,96875.53
2019-04-04T09:41:51.695Z,96877.20
2019-04-04T09:44:25.959Z,96874.06
2019-04-04T09:47:05.231Z,96861.24
2019-04-04T09:49:30.400Z,96874.06
2019-04-04T09:52:06.039Z,96871.81
2019-04-04T09:54:39.426Z,96871.83
2019-04-04T09:57:12.988Z,96867.11
2019-04-04T09:59:45.504Z,96667.75
2019-04-04T10:02:20.263Z,96861.00
2019-04-04T10:04:53.320Z,96859.73
2019-04-04T10:07:27.520Z,96855.00
2019-04-04T10:10:01.615Z,96864.91
2019-04-04T10:12:33.653Z,96865.42
2019-04-04T10:15:07.944Z,96869.55
2019-04-04T10:17:39.516Z,96859.70
2019-04-04T10:20:12.799Z,96848.23
2019-04-04T10:22:45.640Z,96850.38
2019-04-04T10:25:19.614Z,96851.45
2019-04-04T10:27:53.455Z,96847.95
2019-04-04T10:30:28.491Z,96842.67
2019-04-04T10:33:00.662Z,96840.36
2019-04-04T10:35:32.440Z,96847.33
2019-04-04T10:38:06.850Z,96856.47
2019-04-04T10:40:39.682Z,96846.00
2019-04-04T10:43:12.611Z,96838.59
2019-04-04T10:45:45.588Z,96830.91
2019-04-04T10:48:18.835Z,96838.82
2019-04-04T10:50:53.572Z,96833.45
2019-04-04T10:53:25.841Z,96829.53
2019-04-04T10:55:57.882Z,96833.11
2019-04-04T10:58:31.647Z,96832.50
2019-04-04T11:01:03.738Z,96821.50
2019-04-04T11:03:36.430Z,96823.31
2019-04-04T11:06:08.798Z,96824.44
2019-04-04T11:08:40.984Z,96824.67
2019-04-04T11:11:12.955Z,96827.41
2019-04-04T11:13:45.878Z,96660.12
2019-04-04T11:16:29.583Z,96822.31
2019-04-04T11:18:52.009Z,96826.73
2019-04-04T11:21:25.932Z,96819.20
2019-04-04T11:23:58.903Z,96818.98
2019-04-04T11:26:30.973Z,96826.58
2019-04-04T11:29:03.653Z,96817.48
2019-04-04T11:31:35.907Z,96831.59
2019-04-04T11:34:13.309Z,96828.61
2019-04-04T11:36:45.882Z,96843.45
2019-04-04T11:39:18.291Z,96836.67
2019-04-04T11:41:51.859Z,96838.67
2019-04-04T11:44:25.923Z,96845.28
2019-04-04T11:46:58.996Z,96842.48
2019-04-04T11:49:34.527Z,96835.59
2019-04-04T11:52:06.955Z,96834.76
2019-04-04T11:54:59.602Z,96837.21
2019-04-04T11:57:30.979Z,96837.40
2019-04-04T12:00:04.401Z,96838.03
2019-04-04T12:02:36.479Z,96842.17
2019-04-04T12:05:10.365Z,96823.86
2019-04-04T12:07:43.134Z,96814.83
2019-04-04T12:10:16.535Z,96821.91
2019-04-04T12:12:49.001Z,96816.91
2019-04-04T12:15:21.243Z,96805.97
2019-04-04T12:17:55.120Z,96824.23
2019-04-04T12:20:29.617Z,96820.06
2019-04-04T12:23:01.142Z,96814.41
2019-04-04T12:25:34.165Z,96808.90
2019-04-04T12:28:07.082Z,96807.02
2019-04-04T12:30:40.210Z,96803.08
2019-04-04T12:33:13.322Z,96799.97
2019-04-04T12:35:47.215Z,96792.64
2019-04-04T12:38:18.857Z,96796.59
2019-04-04T12:40:50.288Z,96797.84
2019-04-04T12:43:22.516Z,96803.98
2019-04-04T12:45:55.292Z,96802.83
2019-04-04T12:48:28.266Z,96796.30
2019-04-04T12:51:02.961Z,96793.22
2019-04-04T12:53:36.443Z,96795.78
2019-04-04T12:56:10.417Z,96796.45
2019-04-04T12:58:43.340Z,96791.59
2019-04-04T13:01:16.366Z,96794.00
2019-04-04T13:03:49.422Z,96792.65
2019-04-04T13:06:22.226Z,96791.00
2019-04-04T13:08:55.324Z,96790.24
2019-04-04T13:11:28.226Z,96783.02
2019-04-04T13:14:00.271Z,96780.97
2019-04-04T13:16:34.706Z,96785.09
2019-04-04T13:19:07.588Z,96792.70
2019-04-04T13:21:40.196Z,96776.61
2019-04-04T13:24:13.351Z,96781.36
2019-04-04T13:26:46.418Z,96776.57
2019-04-04T13:29:17.897Z,96763.56
2019-04-04T13:31:50.502Z,96761.61
2019-04-04T13:34:23.596Z,96760.15
2019-04-04T13:36:57.086Z,96760.56
2019-04-04T13:39:28.344Z,96760.72
2019-04-04T13:42:01.583Z,96764.92
2019-04-04T13:44:34.350Z,96763.42
2019-04-04T13:47:08.469Z,96755.55
2019-04-04T13:49:42.191Z,96750.19
2019-04-04T13:52:16.642Z,96756.97
2019-04-04T13:54:49.567Z,96773.97
2019-04-04T13:57:22.586Z,96767.16
2019-04-04T13:59:57.142Z,96776.39
2019-04-04T14:02:29.538Z,96780.27
2019-04-04T14:05:09.815Z,96776.05
2019-04-04T14:07:37.068Z,96776.89
2019-04-04T14:10:11.090Z,96778.17
2019-04-04T14:12:42.666Z,96781.81
2019-04-04T14:15:15.923Z,96783.94
2019-04-04T14:17:48.699Z,96786.50
2019-04-04T14:20:21.511Z,96779.88
2019-04-04T14:22:54.628Z,96783.09
2019-04-04T14:25:29.546Z,96788.28
2019-04-04T14:28:05.381Z,96793.19
2019-04-04T14:30:36.969Z,96790.26
2019-04-04T14:33:10.007Z,96784.55
2019-04-04T14:35:41.802Z,96790.34
2019-04-04T14:38:13.866Z,96788.95
2019-04-04T14:40:45.666Z,96785.56
2019-04-04T14:43:19.987Z,96791.00
2019-04-04T14:45:51.705Z,96794.94
2019-04-04T14:48:24.784Z,96800.68
2019-04-04T14:50:57.650Z,96806.42
2019-04-04T14:53:30.985Z,96803.88
2019-04-04T14:56:04.952Z,96803.45
2019-04-04T14:58:36.735Z,96798.63
2019-04-04T15:01:10.000Z,96807.20
2019-04-04T15:03:42.876Z,96804.09
2019-04-04T15:06:15.004Z,96805.21
2019-04-04T15:08:48.935Z,96816.05
2019-04-04T15:11:24.420Z,96817.06
2019-04-04T15:13:57.716Z,96821.98
2019-04-04T15:16:30.126Z,96820.16
2019-04-04T15:19:04.018Z,96810.97
2019-04-04T15:21:37.092Z,96813.80
2019-04-04T15:24:09.983Z,96815.09
2019-04-04T15:26:43.011Z,96811.75
2019-04-04T15:29:16.061Z,96817.80
2019-04-04T15:31:49.312Z,96814.77
2019-04-04T15:34:22.173Z,96818.33
2019-04-04T15:36:56.906Z,96808.47
2019-04-04T15:39:32.597Z,96814.36
2019-04-04T15:42:07.879Z,96821.38
2019-04-04T15:44:40.944Z,96825.33
2019-04-04T15:47:13.617Z,96835.58
2019-04-04T15:49:47.096Z,96836.14
2019-04-04T15:52:19.120Z,96837.08
2019-04-04T15:54:52.162Z,96838.66
2019-04-04T15:57:26.212Z,96834.20
2019-04-04T15:59:58.125Z,96837.20
2019-04-04T16:02:31.018Z,96848.95
2019-04-04T16:05:04.397Z,96847.63
2019-04-04T16:07:38.443Z,96849.66
2019-04-04T16:10:13.828Z,96847.44
2019-04-04T16:12:46.246Z,96843.42
2019-04-04T16:15:19.293Z,96855.14
2019-04-04T16:17:50.716Z,96847.84
2019-04-04T16:20:23.297Z,96845.37
2019-04-04T16:22:55.097Z,96855.64
2019-04-04T16:25:28.359Z,96859.45
2019-04-04T16:28:02.029Z,96849.36
2019-04-04T16:30:34.305Z,96852.71
2019-04-04T16:33:07.352Z,96853.61
2019-04-04T16:35:40.335Z,96859.33
2019-04-04T16:38:13.420Z,96856.87
2019-04-04T16:40:46.298Z,96856.85
2019-04-04T16:43:19.447Z,96861.03
2019-04-04T16:45:52.413Z,96864.52
2019-04-04T16:48:25.435Z,96870.88
2019-04-04T16:50:58.406Z,96877.14
2019-04-04T16:53:30.358Z,96880.91
2019-04-04T16:56:06.533Z,96885.77
2019-04-04T16:58:41.246Z,96887.98
2019-04-04T17:01:13.340Z,96886.13
2019-04-04T17:04:00.671Z,96877.17
2019-04-04T17:06:23.421Z,96871.95
2019-04-04T17:08:55.560Z,96878.58
2019-04-04T17:11:28.440Z,96884.23
2019-04-04T17:14:02.422Z,96885.56
2019-04-04T17:16:34.457Z,96887.11
2019-04-04T17:19:08.547Z,96893.72
2019-04-04T17:21:40.387Z,96893.72
2019-04-04T17:24:14.448Z,96888.47
2019-04-04T17:26:46.616Z,96894.41
2019-04-04T17:29:20.618Z,96898.28
2019-04-04T17:31:52.589Z,96892.68
2019-04-04T17:34:26.574Z,96892.41
2019-04-04T17:36:59.970Z,96895.30
2019-04-04T17:39:34.820Z,96892.02
2019-04-04T17:42:07.665Z,96898.58
2019-04-04T17:44:40.912Z,96896.48
2019-04-04T17:47:13.641Z,96901.42
2019-04-04T17:49:45.443Z,96896.99
2019-04-04T17:52:17.708Z,96908.30
2019-04-04T17:54:49.952Z,96909.73
2019-04-04T17:57:22.720Z,96915.34
2019-04-04T17:59:55.685Z,96916.20
2019-04-04T18:02:28.798Z,96912.17
2019-04-04T18:05:01.607Z,96914.19
2019-04-04T18:07:32.928Z,96909.16
2019-04-04T18:10:05.385Z,96911.56
2019-04-04T18:12:40.540Z,96918.34
2019-04-04T18:15:11.355Z,96914.87
2019-04-04T18:17:43.715Z,96912.72
2019-04-04T18:20:17.114Z,96907.86
2019-04-04T18:22:50.674Z,96905.53
2019-04-04T18:25:24.678Z,96912.65
2019-04-04T18:27:57.882Z,96905.80
2019-04-04T18:30:33.403Z,96902.14
2019-04-04T18:33:04.956Z,96906.06
2019-04-04T18:35:37.202Z,96915.93
2019-04-04T18:38:11.465Z,96917.23
2019-04-04T18:40:43.875Z,96922.05
2019-04-04T18:43:16.863Z,96929.58
2019-04-04T18:45:50.001Z,96941.39
2019-04-04T18:48:22.719Z,96934.44
2019-04-04T18:50:55.855Z,96946.06
2019-04-04T18:53:28.939Z,96938.97
2019-04-04T18:56:01.999Z,96942.62
2019-04-04T18:58:35.913Z,96948.58
2019-04-04T19:01:09.726Z,96949.42
2019-04-04T19:03:44.045Z,96944.13
2019-04-04T19:06:15.946Z,96941.52
2019-04-04T19:08:51.595Z,96939.95
2019-04-04T19:11:24.153Z,96940.33
2019-04-04T19:13:58.022Z,96943.24
2019-04-04T19:16:33.131Z,96944.48
2019-04-04T19:19:07.281Z,96944.89
2019-04-04T19:21:40.267Z,96942.93
2019-04-04T19:24:13.128Z,96942.75
2019-04-04T19:26:46.347Z,96947.48
2019-04-04T19:29:20.865Z,96950.67
2019-04-04T19:31:54.945Z,96947.05
2019-04-04T19:34:30.585Z,96952.16
2019-04-04T19:37:04.038Z,96947.92
2019-04-04T19:39:35.468Z,96953.53
2019-04-04T19:42:07.081Z,96954.05
2019-04-04T19:44:52.641Z,96970.58
2019-04-04T19:47:15.217Z,96979.31
2019-04-04T19:49:46.616Z,96982.64
2019-04-04T19:52:19.271Z,96980.04
2019-04-04T19:54:52.175Z,96977.10
2019-04-04T19:57:25.745Z,96978.91
2019-04-04T19:59:58.307Z,96980.15
2019-04-04T20:02:30.621Z,96981.78
2019-04-04T20:05:04.394Z,96983.48
2019-04-04T20:07:37.097Z,96983.48
2019-04-04T20:10:10.490Z,96978.26
2019-04-04T20:12:43.331Z,96983.77
2019-04-04T20:15:17.386Z,96979.05
2019-04-04T20:17:49.533Z,96979.09
2019-04-04T20:20:23.370Z,96984.23
2019-04-04T20:22:56.443Z,96979.16
2019-04-04T20:25:30.236Z,96992.25
2019-04-04T20:28:04.397Z,96995.80
2019-04-04T20:30:38.804Z,96994.64
2019-04-04T20:33:11.241Z,97001.27
2019-04-04T20:35:43.230Z,96999.27
2019-04-04T20:38:15.309Z,97000.47
2019-04-04T20:40:49.228Z,97006.80
2019-04-04T20:43:22.337Z,97015.75
2019-04-04T20:45:55.310Z,97018.63
2019-04-04T20:48:27.620Z,97023.38
2019-04-04T20:51:01.438Z,97022.03
2019-04-04T20:53:34.418Z,97022.64
2019-04-04T20:56:07.409Z,97019.35
2019-04-04T20:58:39.501Z,97023.78
2019-04-04T21:01:11.333Z,97035.75
2019-04-04T21:03:45.197Z,97032.83
2019-04-04T21:06:21.258Z,97077.97
2019-04-04T21:08:55.532Z,97092.47
2019-04-04T21:11:27.339Z,97103.39
2019-04-04T21:14:01.507Z,97114.31
2019-04-04T21:16:38.649Z,97121.09
2019-04-04T21:19:10.663Z,97130.63
2019-04-04T21:21:44.289Z,97126.45
2019-04-04T21:24:18.089Z,97126.85
2019-04-04T21:26:49.875Z,97121.55
2019-04-04T21:29:23.993Z,97133.23
2019-04-04T21:32:06.213Z,97148.64
2019-04-04T21:34:41.001Z,97149.03
2019-04-04T21:37:14.785Z,97165.72
2019-04-04T21:39:46.657Z,97170.72
2019-04-04T21:42:21.358Z,97169.05
2019-04-04T21:44:54.763Z,97167.34
2019-04-04T21:47:27.613Z,97175.69
2019-04-04T21:50:00.812Z,97165.91
2019-04-04T21:52:33.815Z,97184.37
2019-04-04T21:55:08.496Z,97197.52
2019-04-04T21:57:42.727Z,97207.20
2019-04-04T22:00:14.921Z,97205.99
2019-04-04T22:02:46.833Z,97205.99
2019-04-04T22:05:19.815Z,97204.95
2019-04-04T22:07:53.091Z,97207.19
2019-04-04T22:10:24.607Z,97214.77
2019-04-04T22:12:56.344Z,97226.00
2019-04-04T22:15:30.496Z,97234.80
2019-04-04T22:18:02.861Z,97234.06
2019-04-04T22:20:34.778Z,97234.39
2019-04-04T22:23:10.649Z,97229.36
2019-04-04T22:25:43.948Z,97226.70
2019-04-04T22:28:16.999Z,97235.54
2019-04-04T22:30:49.939Z,97244.08
2019-04-04T22:33:23.070Z,97254.52
2019-04-04T22:35:55.820Z,97245.18
2019-04-04T22:38:29.225Z,97250.48
2019-04-04T22:41:03.922Z,97254.00
2019-04-04T22:43:37.325Z,97254.28
2019-04-04T22:46:11.084Z,97266.80
2019-04-04T22:48:44.029Z,97258.06
2019-04-04T22:51:17.138Z,97268.95
2019-04-04T22:53:50.031Z,97279.63
2019-04-04T22:56:22.955Z,97276.69
2019-04-04T22:58:56.083Z,97280.70
2019-04-04T23:01:29.136Z,97278.60
2019-04-04T23:04:01.073Z,97291.94
2019-04-04T23:06:35.144Z,97291.94
2019-04-04T23:09:08.902Z,97279.98
2019-04-04T23:11:42.122Z,97281.31
2019-04-04T23:14:15.653Z,97292.48
2019-04-04T23:16:50.072Z,97295.13
2019-04-04T23:19:23.195Z,97291.93
2019-04-04T23:21:56.074Z,97287.68
2019-04-04T23:24:30.908Z,97285.55
2019-04-04T23:27:05.001Z,97283.44
2019-04-04T23:29:37.281Z,97279.73
2019-04-04T23:32:11.316Z,97285.05
2019-04-04T23:34:44.255Z,97289.84
2019-04-04T23:37:17.197Z,97286.63
2019-04-04T23:39:50.049Z,97285.84
2019-04-04T23:42:23.127Z,97288.24
2019-04-04T23:45:01.292Z,97281.84
2019-04-04T23:47:42.153Z,97281.86
2019-04-04T23:50:05.501Z,97293.30
2019-04-04T23:52:37.319Z,97292.22
2019-04-04T23:55:11.311Z,97287.98
2019-04-04T23:57:44.339Z,97286.38
